sensor_id;sensor_type;location;lat;lon;timestamp;temperature;humidity
18597;DHT22;9428;50.950;6.912;2023-07-13T00:00:20;19.70;99.90
18597;DHT22;9428;50.950;6.912;2023-07-13T00:03:08;19.80;99.90
18597;DHT22;9428;50.950;6.912;2023-07-13T00:05:59;19.80;99.90
18597;DHT22;9428;50.950;6.912;2023-07-13T00:08:47;19.90;99.90
18597;DHT22;9428;50.950;6.912;2023-07-13T00:11:34;19.80;99.90
18597;DHT22;9428;50.950;6.912;2023-07-13T00:14:26;19.80;99.90
18597;DHT22;9428;50.950;6.912;2023-07-13T00:17:13;19.70;99.90
18597;DHT22;9428;50.950;6.912;2023-07-13T00:20:01;19.70;99.90
18597;DHT22;9428;50.950;6.912;2023-07-13T00:22:49;19.60;99.90
18597;DHT22;9428;50.950;6.912;2023-07-13T00:25:38;19.70;99.90
18597;DHT22;9428;50.950;6.912;2023-07-13T00:28:25;19.60;99.90
18597;DHT22;9428;50.950;6.912;2023-07-13T00:31:14;19.60;99.90
18597;DHT22;9428;50.950;6.912;2023-07-13T00:34:01;19.60;99.90
18597;DHT22;9428;50.950;6.912;2023-07-13T00:36:48;19.50;99.90
18597;DHT22;9428;50.950;6.912;2023-07-13T00:39:35;19.30;99.90
18597;DHT22;9428;50.950;6.912;2023-07-13T00:42:23;19.40;99.90
18597;DHT22;9428;50.950;6.912;2023-07-13T00:48:36;19.20;99.90
18597;DHT22;9428;50.950;6.912;2023-07-13T00:51:36;19.10;99.90
18597;DHT22;9428;50.950;6.912;2023-07-13T00:54:29;19.10;99.90
18597;DHT22;9428;50.950;6.912;2023-07-13T00:57:19;19.20;99.90
18597;DHT22;9428;50.950;6.912;2023-07-13T01:00:08;19.20;99.90
18597;DHT22;9428;50.950;6.912;2023-07-13T01:02:57;19.10;99.90
18597;DHT22;9428;50.950;6.912;2023-07-13T01:05:47;19.10;99.90
18597;DHT22;9428;50.950;6.912;2023-07-13T01:08:35;19.20;99.90
18597;DHT22;9428;50.950;6.912;2023-07-13T01:11:22;19.20;99.90
18597;DHT22;9428;50.950;6.912;2023-07-13T01:14:09;19.20;99.90
18597;DHT22;9428;50.950;6.912;2023-07-13T01:16:57;19.20;99.90
18597;DHT22;9428;50.950;6.912;2023-07-13T01:19:46;19.20;99.90
18597;DHT22;9428;50.950;6.912;2023-07-13T01:22:34;19.00;99.90
18597;DHT22;9428;50.950;6.912;2023-07-13T01:25:21;19.10;99.90
18597;DHT22;9428;50.950;6.912;2023-07-13T01:28:09;19.10;99.90
18597;DHT22;9428;50.950;6.912;2023-07-13T01:30:57;19.00;99.90
18597;DHT22;9428;50.950;6.912;2023-07-13T01:33:45;19.00;99.90
18597;DHT22;9428;50.950;6.912;2023-07-13T01:36:32;19.00;99.90
18597;DHT22;9428;50.950;6.912;2023-07-13T01:39:22;19.10;99.90
18597;DHT22;9428;50.950;6.912;2023-07-13T01:42:10;19.00;99.90
18597;DHT22;9428;50.950;6.912;2023-07-13T01:44:57;18.90;99.90
18597;DHT22;9428;50.950;6.912;2023-07-13T01:47:44;18.80;99.90
18597;DHT22;9428;50.950;6.912;2023-07-13T01:50:32;18.80;99.90
18597;DHT22;9428;50.950;6.912;2023-07-13T01:53:19;18.80;99.90
18597;DHT22;9428;50.950;6.912;2023-07-13T01:56:07;18.70;99.90
18597;DHT22;9428;50.950;6.912;2023-07-13T01:58:54;18.60;99.90
18597;DHT22;9428;50.950;6.912;2023-07-13T02:01:42;18.60;99.90
18597;DHT22;9428;50.950;6.912;2023-07-13T02:04:30;18.70;99.90
18597;DHT22;9428;50.950;6.912;2023-07-13T02:07:17;18.80;99.90
18597;DHT22;9428;50.950;6.912;2023-07-13T02:10:05;18.80;99.90
18597;DHT22;9428;50.950;6.912;2023-07-13T02:12:54;18.80;99.90
18597;DHT22;9428;50.950;6.912;2023-07-13T02:15:41;18.80;99.90
18597;DHT22;9428;50.950;6.912;2023-07-13T02:18:28;18.70;99.90
18597;DHT22;9428;50.950;6.912;2023-07-13T02:21:15;18.90;99.90
18597;DHT22;9428;50.950;6.912;2023-07-13T02:24:04;18.80;99.90
18597;DHT22;9428;50.950;6.912;2023-07-13T02:26:51;18.80;99.90
18597;DHT22;9428;50.950;6.912;2023-07-13T02:29:39;18.70;99.90
18597;DHT22;9428;50.950;6.912;2023-07-13T02:32:27;18.60;99.90
18597;DHT22;9428;50.950;6.912;2023-07-13T02:35:14;18.60;99.90
18597;DHT22;9428;50.950;6.912;2023-07-13T02:38:02;18.60;99.90
18597;DHT22;9428;50.950;6.912;2023-07-13T02:40:49;18.50;99.90
18597;DHT22;9428;50.950;6.912;2023-07-13T02:43:37;18.60;99.90
18597;DHT22;9428;50.950;6.912;2023-07-13T02:46:26;18.60;99.90
18597;DHT22;9428;50.950;6.912;2023-07-13T02:49:13;18.40;99.90
18597;DHT22;9428;50.950;6.912;2023-07-13T02:52:00;18.50;99.90
18597;DHT22;9428;50.950;6.912;2023-07-13T02:54:48;18.40;99.90
18597;DHT22;9428;50.950;6.912;2023-07-13T02:57:35;18.50;99.90
18597;DHT22;9428;50.950;6.912;2023-07-13T03:00:22;18.40;99.90
18597;DHT22;9428;50.950;6.912;2023-07-13T03:03:12;18.40;99.90
18597;DHT22;9428;50.950;6.912;2023-07-13T03:06:00;18.30;99.90
18597;DHT22;9428;50.950;6.912;2023-07-13T03:08:49;18.40;99.90
18597;DHT22;9428;50.950;6.912;2023-07-13T03:11:36;18.30;99.90
18597;DHT22;9428;50.950;6.912;2023-07-13T03:14:23;18.40;99.90
18597;DHT22;9428;50.950;6.912;2023-07-13T03:17:11;18.20;99.90
18597;DHT22;9428;50.950;6.912;2023-07-13T03:19:59;18.20;99.90
18597;DHT22;9428;50.950;6.912;2023-07-13T03:22:48;18.10;99.90
18597;DHT22;9428;50.950;6.912;2023-07-13T03:25:36;18.20;99.90
18597;DHT22;9428;50.950;6.912;2023-07-13T03:28:23;18.20;99.90
18597;DHT22;9428;50.950;6.912;2023-07-13T03:31:12;18.20;99.90
18597;DHT22;9428;50.950;6.912;2023-07-13T03:34:00;18.20;99.90
18597;DHT22;9428;50.950;6.912;2023-07-13T03:36:49;18.10;99.90
18597;DHT22;9428;50.950;6.912;2023-07-13T03:39:36;18.00;99.90
18597;DHT22;9428;50.950;6.912;2023-07-13T03:42:23;18.00;99.90
18597;DHT22;9428;50.950;6.912;2023-07-13T03:45:11;18.00;99.90
18597;DHT22;9428;50.950;6.912;2023-07-13T03:47:59;18.10;99.90
18597;DHT22;9428;50.950;6.912;2023-07-13T03:50:47;18.00;99.90
18597;DHT22;9428;50.950;6.912;2023-07-13T03:53:39;18.10;99.90
18597;DHT22;9428;50.950;6.912;2023-07-13T03:56:26;18.10;99.90
18597;DHT22;9428;50.950;6.912;2023-07-13T03:59:14;18.10;99.90
18597;DHT22;9428;50.950;6.912;2023-07-13T04:02:01;18.10;99.90
18597;DHT22;9428;50.950;6.912;2023-07-13T04:04:50;18.10;99.90
18597;DHT22;9428;50.950;6.912;2023-07-13T04:07:37;18.10;99.90
18597;DHT22;9428;50.950;6.912;2023-07-13T04:10:25;18.10;99.90
18597;DHT22;9428;50.950;6.912;2023-07-13T04:13:13;18.10;99.90
18597;DHT22;9428;50.950;6.912;2023-07-13T04:16:00;18.10;99.90
18597;DHT22;9428;50.950;6.912;2023-07-13T04:18:48;18.10;99.90
18597;DHT22;9428;50.950;6.912;2023-07-13T04:21:36;18.10;99.90
18597;DHT22;9428;50.950;6.912;2023-07-13T04:24:24;18.10;99.90
18597;DHT22;9428;50.950;6.912;2023-07-13T04:27:12;18.00;99.90
18597;DHT22;9428;50.950;6.912;2023-07-13T04:29:59;18.10;99.90
18597;DHT22;9428;50.950;6.912;2023-07-13T04:32:49;18.20;99.90
18597;DHT22;9428;50.950;6.912;2023-07-13T04:35:37;18.10;99.90
18597;DHT22;9428;50.950;6.912;2023-07-13T04:38:26;18.00;99.90
18597;DHT22;9428;50.950;6.912;2023-07-13T04:41:14;17.80;99.90
18597;DHT22;9428;50.950;6.912;2023-07-13T04:44:03;17.90;99.90
18597;DHT22;9428;50.950;6.912;2023-07-13T04:46:50;18.00;99.90
18597;DHT22;9428;50.950;6.912;2023-07-13T04:49:37;17.90;99.90
18597;DHT22;9428;50.950;6.912;2023-07-13T04:52:25;17.90;99.90
18597;DHT22;9428;50.950;6.912;2023-07-13T04:55:12;18.10;99.90
18597;DHT22;9428;50.950;6.912;2023-07-13T04:58:00;17.90;99.90
18597;DHT22;9428;50.950;6.912;2023-07-13T05:00:49;17.90;99.90
18597;DHT22;9428;50.950;6.912;2023-07-13T05:03:37;18.00;99.90
18597;DHT22;9428;50.950;6.912;2023-07-13T05:06:24;17.90;99.90
18597;DHT22;9428;50.950;6.912;2023-07-13T05:09:11;18.00;99.90
18597;DHT22;9428;50.950;6.912;2023-07-13T05:11:59;18.00;99.90
18597;DHT22;9428;50.950;6.912;2023-07-13T05:14:46;18.00;99.90
18597;DHT22;9428;50.950;6.912;2023-07-13T05:17:36;18.20;99.90
18597;DHT22;9428;50.950;6.912;2023-07-13T05:20:24;18.00;99.90
18597;DHT22;9428;50.950;6.912;2023-07-13T05:23:11;18.10;99.90
18597;DHT22;9428;50.950;6.912;2023-07-13T05:25:59;18.10;99.90
18597;DHT22;9428;50.950;6.912;2023-07-13T05:28:46;18.00;99.90
18597;DHT22;9428;50.950;6.912;2023-07-13T05:31:34;18.10;99.90
18597;DHT22;9428;50.950;6.912;2023-07-13T05:34:22;18.10;99.90
18597;DHT22;9428;50.950;6.912;2023-07-13T05:37:10;18.10;99.90
18597;DHT22;9428;50.950;6.912;2023-07-13T05:39:57;18.00;99.90
18597;DHT22;9428;50.950;6.912;2023-07-13T05:42:44;18.20;99.90
18597;DHT22;9428;50.950;6.912;2023-07-13T05:45:32;18.20;99.90
18597;DHT22;9428;50.950;6.912;2023-07-13T05:48:19;18.30;99.90
18597;DHT22;9428;50.950;6.912;2023-07-13T05:51:07;18.50;99.90
18597;DHT22;9428;50.950;6.912;2023-07-13T05:53:55;18.40;99.90
18597;DHT22;9428;50.950;6.912;2023-07-13T05:56:42;18.20;99.90
18597;DHT22;9428;50.950;6.912;2023-07-13T05:59:29;18.40;99.90
18597;DHT22;9428;50.950;6.912;2023-07-13T06:02:17;18.50;99.90
18597;DHT22;9428;50.950;6.912;2023-07-13T06:05:05;18.50;99.90
18597;DHT22;9428;50.950;6.912;2023-07-13T06:07:53;18.50;99.90
18597;DHT22;9428;50.950;6.912;2023-07-13T06:10:41;18.30;99.90
18597;DHT22;9428;50.950;6.912;2023-07-13T06:13:28;18.40;99.90
18597;DHT22;9428;50.950;6.912;2023-07-13T06:16:16;18.20;99.90
18597;DHT22;9428;50.950;6.912;2023-07-13T06:19:03;18.30;99.90
18597;DHT22;9428;50.950;6.912;2023-07-13T06:21:50;18.30;99.90
18597;DHT22;9428;50.950;6.912;2023-07-13T06:24:39;18.50;99.90
18597;DHT22;9428;50.950;6.912;2023-07-13T06:27:26;18.60;99.90
18597;DHT22;9428;50.950;6.912;2023-07-13T06:30:13;18.70;99.90
18597;DHT22;9428;50.950;6.912;2023-07-13T06:33:00;18.40;99.90
18597;DHT22;9428;50.950;6.912;2023-07-13T06:35:48;18.70;99.90
18597;DHT22;9428;50.950;6.912;2023-07-13T06:38:35;18.60;99.90
18597;DHT22;9428;50.950;6.912;2023-07-13T06:41:24;18.60;99.90
18597;DHT22;9428;50.950;6.912;2023-07-13T06:44:12;18.70;99.90
18597;DHT22;9428;50.950;6.912;2023-07-13T06:46:59;18.70;99.90
18597;DHT22;9428;50.950;6.912;2023-07-13T06:49:46;18.60;99.90
18597;DHT22;9428;50.950;6.912;2023-07-13T06:52:34;18.60;99.90
18597;DHT22;9428;50.950;6.912;2023-07-13T06:55:21;18.60;99.90
18597;DHT22;9428;50.950;6.912;2023-07-13T06:58:10;18.50;99.90
18597;DHT22;9428;50.950;6.912;2023-07-13T07:00:57;18.40;99.90
18597;DHT22;9428;50.950;6.912;2023-07-13T07:03:44;18.40;99.90
18597;DHT22;9428;50.950;6.912;2023-07-13T07:06:31;18.60;99.90
18597;DHT22;9428;50.950;6.912;2023-07-13T07:09:18;18.70;99.90
18597;DHT22;9428;50.950;6.912;2023-07-13T07:12:06;18.70;99.90
18597;DHT22;9428;50.950;6.912;2023-07-13T07:14:57;18.70;99.90
18597;DHT22;9428;50.950;6.912;2023-07-13T07:17:44;18.80;99.90
18597;DHT22;9428;50.950;6.912;2023-07-13T07:20:32;19.00;99.90
18597;DHT22;9428;50.950;6.912;2023-07-13T07:23:19;19.00;99.90
18597;DHT22;9428;50.950;6.912;2023-07-13T07:26:06;18.90;99.90
18597;DHT22;9428;50.950;6.912;2023-07-13T07:28:55;19.10;99.90
18597;DHT22;9428;50.950;6.912;2023-07-13T07:31:44;19.00;99.90
18597;DHT22;9428;50.950;6.912;2023-07-13T07:34:31;19.10;99.90
18597;DHT22;9428;50.950;6.912;2023-07-13T07:37:19;19.30;99.90
18597;DHT22;9428;50.950;6.912;2023-07-13T07:40:07;19.40;99.90
18597;DHT22;9428;50.950;6.912;2023-07-13T07:42:55;19.70;99.90
18597;DHT22;9428;50.950;6.912;2023-07-13T07:45:43;19.80;99.90
18597;DHT22;9428;50.950;6.912;2023-07-13T07:48:32;19.60;99.90
18597;DHT22;9428;50.950;6.912;2023-07-13T07:51:19;19.70;99.90
18597;DHT22;9428;50.950;6.912;2023-07-13T07:54:06;19.70;99.90
18597;DHT22;9428;50.950;6.912;2023-07-13T07:56:54;19.80;99.90
18597;DHT22;9428;50.950;6.912;2023-07-13T07:59:41;19.90;99.90
18597;DHT22;9428;50.950;6.912;2023-07-13T08:02:28;20.10;99.90
18597;DHT22;9428;50.950;6.912;2023-07-13T08:05:17;20.30;99.90
18597;DHT22;9428;50.950;6.912;2023-07-13T08:08:04;20.20;99.90
18597;DHT22;9428;50.950;6.912;2023-07-13T08:10:52;20.30;99.90
18597;DHT22;9428;50.950;6.912;2023-07-13T08:13:39;20.40;99.90
18597;DHT22;9428;50.950;6.912;2023-07-13T08:16:26;20.30;99.90
18597;DHT22;9428;50.950;6.912;2023-07-13T08:19:14;20.10;99.90
18597;DHT22;9428;50.950;6.912;2023-07-13T08:22:02;20.30;99.90
18597;DHT22;9428;50.950;6.912;2023-07-13T08:24:50;20.20;99.90
18597;DHT22;9428;50.950;6.912;2023-07-13T08:27:41;20.00;99.90
18597;DHT22;9428;50.950;6.912;2023-07-13T08:30:29;20.30;99.90
18597;DHT22;9428;50.950;6.912;2023-07-13T08:33:16;20.40;99.90
18597;DHT22;9428;50.950;6.912;2023-07-13T08:36:04;20.30;99.90
18597;DHT22;9428;50.950;6.912;2023-07-13T08:38:53;20.10;99.90
18597;DHT22;9428;50.950;6.912;2023-07-13T08:41:40;20.60;99.90
18597;DHT22;9428;50.950;6.912;2023-07-13T08:44:37;20.90;99.90
18597;DHT22;9428;50.950;6.912;2023-07-13T08:47:28;20.80;99.90
18597;DHT22;9428;50.950;6.912;2023-07-13T08:50:19;20.90;99.90
18597;DHT22;9428;50.950;6.912;2023-07-13T08:53:11;21.00;99.90
18597;DHT22;9428;50.950;6.912;2023-07-13T08:56:01;21.20;99.90
18597;DHT22;9428;50.950;6.912;2023-07-13T08:58:53;21.00;99.90
18597;DHT22;9428;50.950;6.912;2023-07-13T09:02:14;21.10;99.90
18597;DHT22;9428;50.950;6.912;2023-07-13T09:05:10;21.00;99.90
18597;DHT22;9428;50.950;6.912;2023-07-13T09:08:16;21.00;99.90
18597;DHT22;9428;50.950;6.912;2023-07-13T09:11:17;20.80;99.90
18597;DHT22;9428;50.950;6.912;2023-07-13T09:14:26;20.70;99.90
18597;DHT22;9428;50.950;6.912;2023-07-13T09:17:18;21.00;99.90
18597;DHT22;9428;50.950;6.912;2023-07-13T09:20:14;21.30;99.90
18597;DHT22;9428;50.950;6.912;2023-07-13T09:23:09;21.50;99.90
18597;DHT22;9428;50.950;6.912;2023-07-13T09:26:02;21.70;99.90
18597;DHT22;9428;50.950;6.912;2023-07-13T09:28:57;21.60;99.90
18597;DHT22;9428;50.950;6.912;2023-07-13T09:31:47;21.60;99.90
18597;DHT22;9428;50.950;6.912;2023-07-13T09:34:36;21.80;99.90
18597;DHT22;9428;50.950;6.912;2023-07-13T09:37:30;21.70;99.90
18597;DHT22;9428;50.950;6.912;2023-07-13T09:40:22;21.60;99.90
18597;DHT22;9428;50.950;6.912;2023-07-13T09:43:14;21.50;99.90
18597;DHT22;9428;50.950;6.912;2023-07-13T09:46:03;21.50;99.90
18597;DHT22;9428;50.950;6.912;2023-07-13T09:48:51;21.70;99.90
18597;DHT22;9428;50.950;6.912;2023-07-13T09:51:39;21.60;99.90
18597;DHT22;9428;50.950;6.912;2023-07-13T09:54:27;22.00;99.90
18597;DHT22;9428;50.950;6.912;2023-07-13T09:57:17;21.80;99.90
18597;DHT22;9428;50.950;6.912;2023-07-13T10:00:18;21.60;99.90
18597;DHT22;9428;50.950;6.912;2023-07-13T10:03:17;21.40;99.90
18597;DHT22;9428;50.950;6.912;2023-07-13T10:06:12;21.30;99.90
18597;DHT22;9428;50.950;6.912;2023-07-13T10:09:00;21.50;99.90
18597;DHT22;9428;50.950;6.912;2023-07-13T10:11:50;21.90;99.90
18597;DHT22;9428;50.950;6.912;2023-07-13T10:14:38;22.00;99.90
18597;DHT22;9428;50.950;6.912;2023-07-13T10:17:29;22.20;99.90
18597;DHT22;9428;50.950;6.912;2023-07-13T10:20:20;22.20;99.90
18597;DHT22;9428;50.950;6.912;2023-07-13T10:23:18;22.40;99.90
18597;DHT22;9428;50.950;6.912;2023-07-13T10:26:13;22.50;99.90
18597;DHT22;9428;50.950;6.912;2023-07-13T10:29:07;22.30;99.90
18597;DHT22;9428;50.950;6.912;2023-07-13T10:31:56;22.30;99.90
18597;DHT22;9428;50.950;6.912;2023-07-13T10:34:46;22.40;99.90
18597;DHT22;9428;50.950;6.912;2023-07-13T10:37:41;22.40;99.90
18597;DHT22;9428;50.950;6.912;2023-07-13T10:40:33;22.30;99.90
18597;DHT22;9428;50.950;6.912;2023-07-13T10:43:25;22.30;99.90
18597;DHT22;9428;50.950;6.912;2023-07-13T10:46:17;22.50;99.90
18597;DHT22;9428;50.950;6.912;2023-07-13T10:49:05;22.40;99.90
18597;DHT22;9428;50.950;6.912;2023-07-13T10:51:54;22.10;99.90
18597;DHT22;9428;50.950;6.912;2023-07-13T10:54:42;22.40;99.90
18597;DHT22;9428;50.950;6.912;2023-07-13T10:57:30;22.30;99.90
18597;DHT22;9428;50.950;6.912;2023-07-13T11:00:18;22.20;99.90
18597;DHT22;9428;50.950;6.912;2023-07-13T11:03:14;22.30;99.90
18597;DHT22;9428;50.950;6.912;2023-07-13T11:06:08;22.30;99.90
18597;DHT22;9428;50.950;6.912;2023-07-13T11:08:57;22.20;99.90
18597;DHT22;9428;50.950;6.912;2023-07-13T11:11:47;22.20;99.90
18597;DHT22;9428;50.950;6.912;2023-07-13T11:14:37;21.80;99.90
18597;DHT22;9428;50.950;6.912;2023-07-13T11:17:35;21.80;99.90
18597;DHT22;9428;50.950;6.912;2023-07-13T11:20:33;21.80;99.90
18597;DHT22;9428;50.950;6.912;2023-07-13T11:23:29;21.80;99.90
18597;DHT22;9428;50.950;6.912;2023-07-13T11:26:40;22.10;99.90
18597;DHT22;9428;50.950;6.912;2023-07-13T11:29:37;22.00;99.90
18597;DHT22;9428;50.950;6.912;2023-07-13T11:32:30;22.50;99.90
18597;DHT22;9428;50.950;6.912;2023-07-13T11:35:23;22.50;99.90
18597;DHT22;9428;50.950;6.912;2023-07-13T11:38:16;22.40;99.90
18597;DHT22;9428;50.950;6.912;2023-07-13T11:41:06;22.30;99.90
18597;DHT22;9428;50.950;6.912;2023-07-13T11:43:55;22.10;99.90
18597;DHT22;9428;50.950;6.912;2023-07-13T11:46:48;22.20;99.90
18597;DHT22;9428;50.950;6.912;2023-07-13T11:49:42;22.30;99.90
18597;DHT22;9428;50.950;6.912;2023-07-13T11:52:33;22.30;99.90
18597;DHT22;9428;50.950;6.912;2023-07-13T11:55:22;22.60;99.90
18597;DHT22;9428;50.950;6.912;2023-07-13T11:58:19;22.40;99.90
18597;DHT22;9428;50.950;6.912;2023-07-13T12:01:17;22.60;99.90
18597;DHT22;9428;50.950;6.912;2023-07-13T12:04:18;22.30;99.90
18597;DHT22;9428;50.950;6.912;2023-07-13T12:07:14;22.50;99.90
18597;DHT22;9428;50.950;6.912;2023-07-13T12:10:02;22.60;99.90
18597;DHT22;9428;50.950;6.912;2023-07-13T12:12:52;22.80;99.90
18597;DHT22;9428;50.950;6.912;2023-07-13T12:15:41;22.40;99.90
18597;DHT22;9428;50.950;6.912;2023-07-13T12:18:30;22.40;99.90
18597;DHT22;9428;50.950;6.912;2023-07-13T12:21:26;22.60;99.90
18597;DHT22;9428;50.950;6.912;2023-07-13T12:24:17;22.40;99.90
18597;DHT22;9428;50.950;6.912;2023-07-13T12:27:05;22.40;99.90
18597;DHT22;9428;50.950;6.912;2023-07-13T12:29:57;22.50;99.90
18597;DHT22;9428;50.950;6.912;2023-07-13T12:32:57;22.50;99.90
18597;DHT22;9428;50.950;6.912;2023-07-13T12:35:47;22.30;99.90
18597;DHT22;9428;50.950;6.912;2023-07-13T12:38:36;22.40;99.90
18597;DHT22;9428;50.950;6.912;2023-07-13T12:41:23;22.30;99.90
18597;DHT22;9428;50.950;6.912;2023-07-13T12:44:15;22.40;99.90
18597;DHT22;9428;50.950;6.912;2023-07-13T12:47:05;22.60;99.90
18597;DHT22;9428;50.950;6.912;2023-07-13T12:49:59;22.90;99.90
18597;DHT22;9428;50.950;6.912;2023-07-13T12:52:51;22.90;99.90
18597;DHT22;9428;50.950;6.912;2023-07-13T12:55:46;23.00;99.90
18597;DHT22;9428;50.950;6.912;2023-07-13T12:58:38;23.00;99.90
18597;DHT22;9428;50.950;6.912;2023-07-13T13:01:28;23.10;99.90
18597;DHT22;9428;50.950;6.912;2023-07-13T13:04:16;23.00;99.90
18597;DHT22;9428;50.950;6.912;2023-07-13T13:07:09;22.90;99.90
18597;DHT22;9428;50.950;6.912;2023-07-13T13:09:57;22.90;99.90
18597;DHT22;9428;50.950;6.912;2023-07-13T13:12:45;22.80;99.90
18597;DHT22;9428;50.950;6.912;2023-07-13T13:15:33;22.80;99.90
18597;DHT22;9428;50.950;6.912;2023-07-13T13:18:23;23.10;99.90
18597;DHT22;9428;50.950;6.912;2023-07-13T13:21:11;23.20;99.90
18597;DHT22;9428;50.950;6.912;2023-07-13T13:23:58;23.20;99.90
18597;DHT22;9428;50.950;6.912;2023-07-13T13:26:45;23.40;99.90
18597;DHT22;9428;50.950;6.912;2023-07-13T13:29:38;23.10;99.90
18597;DHT22;9428;50.950;6.912;2023-07-13T13:32:25;23.00;99.90
18597;DHT22;9428;50.950;6.912;2023-07-13T13:35:13;23.10;99.90
18597;DHT22;9428;50.950;6.912;2023-07-13T13:38:00;23.10;99.90
18597;DHT22;9428;50.950;6.912;2023-07-13T13:40:48;23.20;99.90
18597;DHT22;9428;50.950;6.912;2023-07-13T13:43:35;23.20;99.90
18597;DHT22;9428;50.950;6.912;2023-07-13T13:46:24;23.40;99.90
18597;DHT22;9428;50.950;6.912;2023-07-13T13:49:16;23.30;99.90
18597;DHT22;9428;50.950;6.912;2023-07-13T13:52:05;23.40;99.90
18597;DHT22;9428;50.950;6.912;2023-07-13T13:54:52;23.30;99.90
18597;DHT22;9428;50.950;6.912;2023-07-13T13:57:42;23.20;99.90
18597;DHT22;9428;50.950;6.912;2023-07-13T14:00:29;23.20;99.90
18597;DHT22;9428;50.950;6.912;2023-07-13T14:03:19;23.30;99.90
18597;DHT22;9428;50.950;6.912;2023-07-13T14:06:09;23.50;99.90
18597;DHT22;9428;50.950;6.912;2023-07-13T14:08:58;23.40;99.90
18597;DHT22;9428;50.950;6.912;2023-07-13T14:11:46;23.50;99.90
18597;DHT22;9428;50.950;6.912;2023-07-13T14:14:34;23.40;99.90
18597;DHT22;9428;50.950;6.912;2023-07-13T14:17:23;23.30;99.90
18597;DHT22;9428;50.950;6.912;2023-07-13T14:20:13;23.30;99.90
18597;DHT22;9428;50.950;6.912;2023-07-13T14:23:01;23.30;99.90
18597;DHT22;9428;50.950;6.912;2023-07-13T14:25:48;23.20;99.90
18597;DHT22;9428;50.950;6.912;2023-07-13T14:28:35;23.30;99.90
18597;DHT22;9428;50.950;6.912;2023-07-13T14:31:26;23.30;99.90
18597;DHT22;9428;50.950;6.912;2023-07-13T14:34:14;23.40;99.90
18597;DHT22;9428;50.950;6.912;2023-07-13T14:37:05;23.40;99.90
18597;DHT22;9428;50.950;6.912;2023-07-13T14:39:52;23.40;99.90
18597;DHT22;9428;50.950;6.912;2023-07-13T14:42:40;23.50;99.90
18597;DHT22;9428;50.950;6.912;2023-07-13T14:45:28;23.40;99.90
18597;DHT22;9428;50.950;6.912;2023-07-13T14:48:17;23.30;99.90
18597;DHT22;9428;50.950;6.912;2023-07-13T14:51:05;23.60;99.90
18597;DHT22;9428;50.950;6.912;2023-07-13T14:53:57;23.60;99.90
18597;DHT22;9428;50.950;6.912;2023-07-13T14:56:44;23.50;99.90
18597;DHT22;9428;50.950;6.912;2023-07-13T14:59:31;23.70;99.90
18597;DHT22;9428;50.950;6.912;2023-07-13T15:02:34;23.70;99.90
18597;DHT22;9428;50.950;6.912;2023-07-13T15:05:24;23.50;99.90
18597;DHT22;9428;50.950;6.912;2023-07-13T15:08:12;23.80;99.90
18597;DHT22;9428;50.950;6.912;2023-07-13T15:11:01;24.00;99.90
18597;DHT22;9428;50.950;6.912;2023-07-13T15:13:51;23.90;99.90
18597;DHT22;9428;50.950;6.912;2023-07-13T15:16:39;23.60;99.90
18597;DHT22;9428;50.950;6.912;2023-07-13T15:19:26;23.80;99.90
18597;DHT22;9428;50.950;6.912;2023-07-13T15:22:14;23.80;99.90
18597;DHT22;9428;50.950;6.912;2023-07-13T15:25:01;23.60;99.90
18597;DHT22;9428;50.950;6.912;2023-07-13T15:27:51;23.70;99.90
18597;DHT22;9428;50.950;6.912;2023-07-13T15:30:41;23.70;99.90
18597;DHT22;9428;50.950;6.912;2023-07-13T15:33:30;23.50;99.90
18597;DHT22;9428;50.950;6.912;2023-07-13T15:36:20;23.40;99.90
18597;DHT22;9428;50.950;6.912;2023-07-13T15:39:13;23.30;99.90
18597;DHT22;9428;50.950;6.912;2023-07-13T15:42:02;22.30;99.90
18597;DHT22;9428;50.950;6.912;2023-07-13T15:44:51;23.40;99.90
18597;DHT22;9428;50.950;6.912;2023-07-13T15:47:38;23.40;99.90
18597;DHT22;9428;50.950;6.912;2023-07-13T15:50:25;23.30;99.90
18597;DHT22;9428;50.950;6.912;2023-07-13T15:53:20;23.20;99.90
18597;DHT22;9428;50.950;6.912;2023-07-13T15:56:18;23.20;99.90
18597;DHT22;9428;50.950;6.912;2023-07-13T15:59:09;23.10;99.90
18597;DHT22;9428;50.950;6.912;2023-07-13T16:01:59;22.90;99.90
18597;DHT22;9428;50.950;6.912;2023-07-13T16:04:48;22.70;99.90
18597;DHT22;9428;50.950;6.912;2023-07-13T16:07:35;22.60;99.90
18597;DHT22;9428;50.950;6.912;2023-07-13T16:10:29;22.50;99.90
18597;DHT22;9428;50.950;6.912;2023-07-13T16:13:19;22.40;99.90
18597;DHT22;9428;50.950;6.912;2023-07-13T16:16:09;22.30;99.90
18597;DHT22;9428;50.950;6.912;2023-07-13T16:18:59;22.20;99.90
18597;DHT22;9428;50.950;6.912;2023-07-13T16:21:48;22.00;99.90
18597;DHT22;9428;50.950;6.912;2023-07-13T16:24:37;22.10;99.90
18597;DHT22;9428;50.950;6.912;2023-07-13T16:27:24;22.10;99.90
18597;DHT22;9428;50.950;6.912;2023-07-13T16:30:14;22.20;99.90
18597;DHT22;9428;50.950;6.912;2023-07-13T16:33:02;22.20;99.90
18597;DHT22;9428;50.950;6.912;2023-07-13T16:35:52;22.20;99.90
18597;DHT22;9428;50.950;6.912;2023-07-13T16:38:40;22.10;99.90
18597;DHT22;9428;50.950;6.912;2023-07-13T16:41:27;22.00;99.90
18597;DHT22;9428;50.950;6.912;2023-07-13T16:44:18;22.00;99.90
18597;DHT22;9428;50.950;6.912;2023-07-13T16:47:11;22.00;99.90
18597;DHT22;9428;50.950;6.912;2023-07-13T16:49:59;22.00;99.90
18597;DHT22;9428;50.950;6.912;2023-07-13T16:52:52;22.00;99.90
18597;DHT22;9428;50.950;6.912;2023-07-13T16:55:40;22.00;99.90
18597;DHT22;9428;50.950;6.912;2023-07-13T16:58:28;21.90;99.90
18597;DHT22;9428;50.950;6.912;2023-07-13T17:01:17;21.90;99.90
18597;DHT22;9428;50.950;6.912;2023-07-13T17:04:08;21.90;99.90
18597;DHT22;9428;50.950;6.912;2023-07-13T17:06:56;21.80;99.90
18597;DHT22;9428;50.950;6.912;2023-07-13T17:09:45;21.90;99.90
18597;DHT22;9428;50.950;6.912;2023-07-13T17:12:32;22.10;99.90
18597;DHT22;9428;50.950;6.912;2023-07-13T17:15:20;22.10;99.90
18597;DHT22;9428;50.950;6.912;2023-07-13T17:18:11;22.00;99.90
18597;DHT22;9428;50.950;6.912;2023-07-13T17:21:00;22.00;99.90
18597;DHT22;9428;50.950;6.912;2023-07-13T17:23:48;22.00;99.90
18597;DHT22;9428;50.950;6.912;2023-07-13T17:26:39;22.00;99.90
18597;DHT22;9428;50.950;6.912;2023-07-13T17:29:29;21.70;99.90
18597;DHT22;9428;50.950;6.912;2023-07-13T17:32:19;21.80;99.90
18597;DHT22;9428;50.950;6.912;2023-07-13T17:35:17;21.90;99.90
18597;DHT22;9428;50.950;6.912;2023-07-13T17:38:06;21.90;99.90
18597;DHT22;9428;50.950;6.912;2023-07-13T17:40:53;22.00;99.90
18597;DHT22;9428;50.950;6.912;2023-07-13T17:43:43;21.90;99.90
18597;DHT22;9428;50.950;6.912;2023-07-13T17:46:31;21.90;99.90
18597;DHT22;9428;50.950;6.912;2023-07-13T17:49:23;21.80;99.90
18597;DHT22;9428;50.950;6.912;2023-07-13T17:52:17;21.70;99.90
18597;DHT22;9428;50.950;6.912;2023-07-13T17:55:12;21.90;99.90
18597;DHT22;9428;50.950;6.912;2023-07-13T17:58:01;21.90;99.90
18597;DHT22;9428;50.950;6.912;2023-07-13T18:00:50;21.80;99.90
18597;DHT22;9428;50.950;6.912;2023-07-13T18:03:42;21.80;99.90
18597;DHT22;9428;50.950;6.912;2023-07-13T18:06:33;21.80;99.90
18597;DHT22;9428;50.950;6.912;2023-07-13T18:09:24;22.00;99.90